createdAt,value
2023-02-07T00:00:17.318Z,96360.80
2023-02-07T00:03:04.921Z,96366.00
2023-02-07T00:05:32.472Z,96364.60
2023-02-07T00:07:59.991Z,96351.80
2023-02-07T00:10:27.712Z,96349.60
2023-02-07T00:12:55.247Z,96355.00
2023-02-07T00:15:22.817Z,96350.60
2023-02-07T00:17:50.760Z,96347.20
2023-02-07T00:20:18.389Z,96351.20
2023-02-07T00:22:45.962Z,96348.00
2023-02-07T00:25:13.642Z,96348.20
2023-02-07T00:27:41.199Z,96338.20
2023-02-07T00:30:08.784Z,96333.00
2023-02-07T00:32:36.398Z,96325.60
2023-02-07T00:35:03.913Z,96317.40
2023-02-07T00:37:31.658Z,96311.60
2023-02-07T00:39:59.270Z,96320.20
2023-02-07T00:42:27.096Z,96322.40
2023-02-07T00:44:54.795Z,96329.60
2023-02-07T00:47:22.329Z,96336.60
2023-02-07T00:49:49.853Z,96341.20
2023-02-07T00:52:17.463Z,96333.20
2023-02-07T00:54:45.067Z,96334.20
2023-02-07T00:57:12.632Z,96329.60
2023-02-07T00:59:40.270Z,96314.80
2023-02-07T01:02:07.815Z,96299.60
2023-02-07T01:04:35.384Z,96297.40
2023-02-07T01:07:02.985Z,96303.80
2023-02-07T01:09:30.614Z,96307.20
2023-02-07T01:11:58.168Z,96311.20
2023-02-07T01:14:25.925Z,96301.80
2023-02-07T01:16:53.524Z,96302.20
2023-02-07T01:19:21.081Z,96290.40
2023-02-07T01:21:48.702Z,96294.60
2023-02-07T01:24:16.360Z,96294.80
2023-02-07T01:26:43.882Z,96279.00
2023-02-07T01:29:11.416Z,96262.40
2023-02-07T01:31:39.248Z,96259.00
2023-02-07T01:34:06.858Z,96259.40
2023-02-07T01:36:34.533Z,96259.00
2023-02-07T01:39:04.047Z,96271.40
2023-02-07T01:41:31.688Z,96279.60
2023-02-07T01:43:59.222Z,96280.20
2023-02-07T01:46:26.914Z,96286.40
2023-02-07T01:48:55.558Z,96295.00
2023-02-07T01:51:23.124Z,96284.40
2023-02-07T01:53:50.736Z,96277.80
2023-02-07T01:56:30.772Z,96277.80
2023-02-07T01:58:59.180Z,96265.20
2023-02-07T02:01:26.803Z,96261.80
2023-02-07T02:03:55.805Z,96250.60
2023-02-07T02:06:23.514Z,96246.40
2023-02-07T02:08:51.058Z,96254.00
2023-02-07T02:11:18.555Z,96245.00
2023-02-07T02:13:46.200Z,96248.60
2023-02-07T02:16:13.851Z,96249.40
2023-02-07T02:18:41.442Z,96242.00
2023-02-07T02:21:09.004Z,96249.40
2023-02-07T02:23:36.677Z,96254.00
2023-02-07T02:26:04.306Z,96255.40
2023-02-07T02:28:31.884Z,96248.40
2023-02-07T02:30:59.486Z,96250.80
2023-02-07T02:33:27.278Z,96254.00
2023-02-07T02:35:54.849Z,96261.60
2023-02-07T02:38:22.502Z,96263.80
2023-02-07T02:40:50.232Z,96265.00
2023-02-07T02:43:17.783Z,96267.80
2023-02-07T02:45:45.284Z,96262.60
2023-02-07T02:48:13.005Z,96271.60
2023-02-07T02:50:40.799Z,96278.80
2023-02-07T02:53:08.339Z,96286.80
2023-02-07T02:55:36.188Z,96291.40
2023-02-07T02:58:04.020Z,96302.00
2023-02-07T03:00:31.650Z,96305.80
2023-02-07T03:02:59.644Z,96296.80
2023-02-07T03:05:27.300Z,96292.60
2023-02-07T03:07:54.941Z,96294.20
2023-02-07T03:10:22.436Z,96298.20
2023-02-07T03:12:50.024Z,96306.20
2023-02-07T03:15:17.570Z,96306.40
2023-02-07T03:17:45.107Z,96305.00
2023-02-07T03:20:12.698Z,96312.40
2023-02-07T03:22:40.305Z,96324.00
2023-02-07T03:25:07.832Z,96323.20
2023-02-07T03:27:35.430Z,96320.20
2023-02-07T03:30:03.001Z,96317.40
2023-02-07T03:32:30.819Z,96317.60
2023-02-07T03:34:58.362Z,96312.00
2023-02-07T03:37:25.943Z,96313.60
2023-02-07T03:39:53.548Z,96307.00
2023-02-07T03:42:21.390Z,96321.60
2023-02-07T03:44:49.037Z,96323.20
2023-02-07T03:47:16.671Z,96311.00
2023-02-07T03:49:44.239Z,96304.40
2023-02-07T03:52:11.794Z,96304.80
2023-02-07T03:54:39.337Z,96293.60
2023-02-07T03:57:07.158Z,96298.00
2023-02-07T03:59:34.664Z,96309.20
2023-02-07T04:02:02.380Z,96320.80
2023-02-07T04:04:30.028Z,96327.80
2023-02-07T04:06:57.595Z,96336.40
2023-02-07T04:09:25.151Z,96337.80
2023-02-07T04:11:52.728Z,96337.60
2023-02-07T04:14:21.475Z,96348.80
2023-02-07T04:16:49.245Z,96343.60
2023-02-07T04:19:16.849Z,96338.80
2023-02-07T04:21:44.392Z,96341.20
2023-02-07T04:24:12.006Z,96320.00
2023-02-07T04:26:39.603Z,96319.20
2023-02-07T04:29:07.166Z,96335.40
2023-02-07T04:31:34.769Z,96324.00
2023-02-07T04:34:02.422Z,96323.40
2023-02-07T04:36:31.119Z,96333.00
2023-02-07T04:38:58.803Z,96335.60
2023-02-07T04:41:26.500Z,96340.60
2023-02-07T04:43:54.259Z,96333.40
2023-02-07T04:46:21.800Z,96329.40
2023-02-07T04:48:49.682Z,96327.00
2023-02-07T04:51:17.225Z,96329.00
2023-02-07T04:53:44.799Z,96338.80
2023-02-07T04:56:12.536Z,96346.00
2023-02-07T04:58:40.132Z,96349.60
2023-02-07T05:01:07.685Z,96346.40
2023-02-07T05:03:35.330Z,96340.00
2023-02-07T05:06:02.961Z,96335.60
2023-02-07T05:08:30.524Z,96338.00
2023-02-07T05:10:58.112Z,96339.40
2023-02-07T05:13:25.655Z,96349.60
2023-02-07T05:15:53.213Z,96338.60
2023-02-07T05:18:21.383Z,96337.60
2023-02-07T05:20:50.869Z,96341.00
2023-02-07T05:23:19.789Z,96349.60
2023-02-07T05:25:47.419Z,96346.40
2023-02-07T05:28:14.984Z,96348.60
2023-02-07T05:30:42.561Z,96347.20
2023-02-07T05:33:10.226Z,96352.20
2023-02-07T05:35:38.073Z,96356.20
2023-02-07T05:38:07.574Z,96361.00
2023-02-07T05:40:35.228Z,96368.00
2023-02-07T05:43:02.780Z,96360.80
2023-02-07T05:45:30.479Z,96363.80
2023-02-07T05:47:58.335Z,96361.80
2023-02-07T05:50:25.856Z,96361.00
2023-02-07T05:52:53.406Z,96356.60
2023-02-07T05:55:21.002Z,96348.60
2023-02-07T05:57:48.530Z,96351.00
2023-02-07T06:00:16.067Z,96350.20
2023-02-07T06:02:43.727Z,96347.40
2023-02-07T06:05:11.449Z,96342.40
2023-02-07T06:07:39.027Z,96344.80
2023-02-07T06:10:06.673Z,96347.40
2023-02-07T06:12:34.224Z,96351.80
2023-02-07T06:15:01.810Z,96358.20
2023-02-07T06:17:29.527Z,96354.40
2023-02-07T06:19:57.054Z,96347.60
2023-02-07T06:22:24.691Z,96330.80
2023-02-07T06:24:52.309Z,96322.00
2023-02-07T06:27:19.955Z,96325.00
2023-02-07T06:29:47.561Z,96327.00
2023-02-07T06:32:15.099Z,96327.00
2023-02-07T06:34:42.626Z,96330.00
2023-02-07T06:37:10.231Z,96325.20
2023-02-07T06:39:37.855Z,96323.00
2023-02-07T06:42:06.187Z,96323.20
2023-02-07T06:44:33.796Z,96326.20
2023-02-07T06:47:01.679Z,96325.40
2023-02-07T06:49:29.219Z,96320.40
2023-02-07T06:51:56.768Z,96318.80
2023-02-07T06:54:24.315Z,96322.00
2023-02-07T06:56:51.876Z,96320.00
2023-02-07T06:59:19.454Z,96310.20
2023-02-07T07:01:49.405Z,96308.80
2023-02-07T07:04:18.436Z,96310.80
2023-02-07T07:06:46.169Z,96298.60
2023-02-07T07:09:13.808Z,96300.60
2023-02-07T07:11:43.337Z,96301.20
2023-02-07T07:14:11.014Z,96294.40
2023-02-07T07:16:38.639Z,96293.20
2023-02-07T07:19:06.244Z,96290.80
2023-02-07T07:21:33.769Z,96293.00
2023-02-07T07:24:01.432Z,96284.00
2023-02-07T07:26:39.532Z,96285.40
2023-02-07T07:29:14.580Z,96287.60
2023-02-07T07:31:42.193Z,96282.80
2023-02-07T07:34:09.735Z,96278.60
2023-02-07T07:36:37.387Z,96287.00
2023-02-07T07:39:04.993Z,96288.80
2023-02-07T07:41:32.523Z,96295.20
2023-02-07T07:44:00.310Z,96292.00
2023-02-07T07:46:27.941Z,96293.00
2023-02-07T07:48:55.793Z,96296.60
2023-02-07T07:51:23.500Z,96292.20
2023-02-07T07:53:51.036Z,96292.00
2023-02-07T07:56:18.643Z,96286.60
2023-02-07T07:58:46.346Z,96286.80
2023-02-07T08:01:13.922Z,96289.40
2023-02-07T08:03:41.533Z,96292.20
2023-02-07T08:06:09.510Z,96286.80
2023-02-07T08:08:37.120Z,96290.20
2023-02-07T08:11:04.679Z,96278.00
2023-02-07T08:13:33.106Z,96277.80
2023-02-07T08:16:01.144Z,96279.60
2023-02-07T08:18:29.136Z,96282.40
2023-02-07T08:20:56.886Z,96279.80
2023-02-07T08:23:24.554Z,96275.60
2023-02-07T08:25:52.176Z,96269.80
2023-02-07T08:28:19.868Z,96262.00
2023-02-07T08:30:47.706Z,96257.60
2023-02-07T08:33:15.401Z,96255.60
2023-02-07T08:35:43.459Z,96265.80
2023-02-07T08:38:11.069Z,96263.40
2023-02-07T08:40:38.952Z,96261.80
2023-02-07T08:43:12.349Z,96260.20
2023-02-07T08:45:40.086Z,96256.60
2023-02-07T08:48:07.748Z,96251.20
2023-02-07T08:50:35.464Z,96257.60
2023-02-07T08:53:02.975Z,96259.40
2023-02-07T08:55:30.933Z,96258.80
2023-02-07T08:57:58.546Z,96257.00
2023-02-07T09:00:26.373Z,96249.20
2023-02-07T09:02:53.948Z,96240.40
2023-02-07T09:05:21.662Z,96243.20
2023-02-07T09:07:49.184Z,96237.00
2023-02-07T09:10:16.696Z,96231.80
2023-02-07T09:12:44.303Z,96231.00
2023-02-07T09:15:11.861Z,96222.00
2023-02-07T09:17:39.429Z,96219.20
2023-02-07T09:20:07.127Z,96228.60
2023-02-07T09:22:54.690Z,96218.40
2023-02-07T09:25:22.259Z,96229.40
2023-02-07T09:27:49.802Z,96230.40
2023-02-07T09:30:17.357Z,96231.40
2023-02-07T09:32:44.959Z,96226.80
2023-02-07T09:35:12.652Z,96236.00
2023-02-07T09:37:49.273Z,96227.80
2023-02-07T09:40:19.169Z,96214.20
2023-02-07T09:42:46.840Z,96214.20
2023-02-07T09:45:14.571Z,96209.20
2023-02-07T09:47:42.243Z,96206.40
2023-02-07T09:50:09.759Z,96203.60
2023-02-07T09:52:37.366Z,96205.20
2023-02-07T09:55:05.667Z,96202.20
2023-02-07T09:57:37.623Z,96194.40
2023-02-07T10:00:05.166Z,96193.80
2023-02-07T10:02:33.199Z,96184.20
2023-02-07T10:05:00.766Z,96187.20
2023-02-07T10:07:28.372Z,96186.60
2023-02-07T10:09:56.520Z,96183.00
2023-02-07T10:12:24.140Z,96187.40
2023-02-07T10:14:51.680Z,96184.80
2023-02-07T10:17:30.564Z,96187.20
2023-02-07T10:19:58.891Z,96184.00
2023-02-07T10:22:26.464Z,96167.80
2023-02-07T10:24:54.031Z,96163.60
2023-02-07T10:27:21.622Z,96167.20
2023-02-07T10:29:49.231Z,96162.60
2023-02-07T10:32:16.755Z,96167.00
2023-02-07T10:34:44.291Z,96164.20
2023-02-07T10:37:11.868Z,96154.20
2023-02-07T10:39:39.831Z,96153.80
2023-02-07T10:42:07.436Z,96151.40
2023-02-07T10:44:35.061Z,96155.80
2023-02-07T10:47:02.843Z,96158.40
2023-02-07T10:49:30.431Z,96161.00
2023-02-07T10:51:58.078Z,96164.60
2023-02-07T10:54:25.808Z,96157.80
2023-02-07T10:56:56.002Z,96155.80
2023-02-07T10:59:25.462Z,96153.40
2023-02-07T11:01:52.973Z,96149.00
2023-02-07T11:04:20.573Z,96149.00
2023-02-07T11:06:48.244Z,96154.40
2023-02-07T11:09:15.799Z,96148.40
2023-02-07T11:11:45.695Z,96150.40
2023-02-07T11:14:13.293Z,96147.20
2023-02-07T11:16:40.822Z,96150.40
2023-02-07T11:19:08.372Z,96144.40
2023-02-07T11:21:36.148Z,96137.80
2023-02-07T11:24:03.652Z,96129.40
2023-02-07T11:26:31.525Z,96132.60
2023-02-07T11:28:59.308Z,96128.80
2023-02-07T11:31:26.883Z,96132.00
2023-02-07T11:33:54.543Z,96125.00
2023-02-07T11:36:26.181Z,96118.20
2023-02-07T11:38:53.948Z,96119.60
2023-02-07T11:41:21.665Z,96120.20
2023-02-07T11:43:49.236Z,96127.40
2023-02-07T11:46:16.813Z,96128.60
2023-02-07T11:48:44.433Z,96120.40
2023-02-07T11:51:12.423Z,96123.20
2023-02-07T11:53:39.972Z,96122.40
2023-02-07T11:56:07.897Z,96105.20
2023-02-07T11:58:35.657Z,96113.20
2023-02-07T12:01:04.206Z,96098.60
2023-02-07T12:03:31.903Z,96098.60
2023-02-07T12:05:59.458Z,96097.00
2023-02-07T12:08:26.991Z,96091.60
2023-02-07T12:10:54.504Z,96086.00
2023-02-07T12:13:22.201Z,96081.00
2023-02-07T12:15:49.771Z,96081.40
2023-02-07T12:18:17.689Z,96082.20
2023-02-07T12:20:45.277Z,96080.60
2023-02-07T12:23:40.357Z,96078.40
2023-02-07T12:26:01.596Z,96069.00
2023-02-07T12:28:29.122Z,96065.40
2023-02-07T12:30:56.675Z,96067.00
2023-02-07T12:33:24.350Z,96063.40
2023-02-07T12:35:57.175Z,96066.20
2023-02-07T12:38:26.749Z,96066.60
2023-02-07T12:40:54.504Z,96066.40
2023-02-07T12:43:22.745Z,96075.60
2023-02-07T12:45:51.634Z,96073.80
2023-02-07T12:48:19.229Z,96079.00
2023-02-07T12:50:46.735Z,96080.60
2023-02-07T12:53:14.471Z,96083.80
2023-02-07T12:55:42.075Z,96084.20
2023-02-07T12:58:09.624Z,96093.60
2023-02-07T13:00:37.365Z,96095.20
2023-02-07T13:03:05.314Z,96095.40
2023-02-07T13:05:33.046Z,96093.20
2023-02-07T13:08:00.659Z,96097.80
2023-02-07T13:10:29.077Z,96090.80
2023-02-07T13:12:56.577Z,96096.00
2023-02-07T13:15:24.225Z,96096.80
2023-02-07T13:17:51.812Z,96092.20
2023-02-07T13:20:19.326Z,96086.40
2023-02-07T13:22:46.928Z,96083.60
2023-02-07T13:25:14.443Z,96087.00
2023-02-07T13:27:42.053Z,96087.60
2023-02-07T13:30:11.437Z,96095.60
2023-02-07T13:32:39.031Z,96090.00
2023-02-07T13:35:06.568Z,96091.00
2023-02-07T13:37:34.279Z,96089.60
2023-02-07T13:40:01.815Z,96089.00
2023-02-07T13:42:29.564Z,96089.20
2023-02-07T13:44:57.659Z,96091.60
2023-02-07T13:47:25.164Z,96081.80
2023-02-07T13:49:52.699Z,96074.80
2023-02-07T13:52:20.288Z,96078.60
2023-02-07T13:54:47.791Z,96075.80
2023-02-07T13:57:34.530Z,96080.00
2023-02-07T14:00:02.086Z,96085.00
2023-02-07T14:02:30.528Z,96081.60
2023-02-07T14:05:01.010Z,96080.80
2023-02-07T14:07:29.819Z,96081.00
2023-02-07T14:09:58.860Z,96081.00
2023-02-07T14:12:26.571Z,96080.00
2023-02-07T14:15:02.609Z,96080.80
2023-02-07T14:17:30.807Z,96082.00
2023-02-07T14:19:58.366Z,96085.80
2023-02-07T14:22:27.040Z,96079.00
2023-02-07T14:24:54.714Z,96078.80
2023-02-07T14:27:22.454Z,96080.80
2023-02-07T14:29:49.968Z,96074.60
2023-02-07T14:32:17.786Z,96073.00
2023-02-07T14:34:45.536Z,96074.00
2023-02-07T14:37:14.283Z,96076.40
2023-02-07T14:39:41.840Z,96071.40
2023-02-07T14:42:09.388Z,96071.20
2023-02-07T14:44:37.039Z,96067.80
2023-02-07T14:47:04.750Z,96068.00
2023-02-07T14:49:32.555Z,96068.80
2023-02-07T14:52:00.128Z,96066.20
2023-02-07T14:54:27.780Z,96065.20
2023-02-07T14:56:55.329Z,96065.80
2023-02-07T14:59:22.858Z,96069.20
2023-02-07T15:01:50.486Z,96067.20
2023-02-07T15:04:17.974Z,96068.40
2023-02-07T15:06:45.466Z,96066.20
2023-02-07T15:09:13.233Z,96066.20
2023-02-07T15:11:40.775Z,96072.00
2023-02-07T15:14:08.326Z,96070.00
2023-02-07T15:16:40.365Z,96067.80
2023-02-07T15:19:07.928Z,96070.00
2023-02-07T15:21:35.528Z,96069.80
2023-02-07T15:24:03.121Z,96073.00
2023-02-07T15:26:30.893Z,96077.40
2023-02-07T15:28:59.129Z,96081.00
2023-02-07T15:31:26.862Z,96091.40
2023-02-07T15:33:54.531Z,96090.60
2023-02-07T15:36:22.115Z,96088.60
2023-02-07T15:38:50.166Z,96092.40
2023-02-07T15:41:17.765Z,96100.00
2023-02-07T15:43:45.335Z,96097.20
2023-02-07T15:46:12.918Z,96096.00
2023-02-07T15:48:40.525Z,96105.60
2023-02-07T15:51:08.161Z,96109.20
2023-02-07T15:53:35.895Z,96109.40
2023-02-07T15:56:03.405Z,96110.40
2023-02-07T15:58:30.925Z,96115.80
2023-02-07T16:00:58.846Z,96107.00
2023-02-07T16:03:28.802Z,96107.60
2023-02-07T16:05:56.324Z,96106.20
2023-02-07T16:08:23.905Z,96106.40
2023-02-07T16:10:51.461Z,96105.40
2023-02-07T16:13:19.271Z,96110.40
2023-02-07T16:15:46.831Z,96121.00
2023-02-07T16:18:14.433Z,96113.00
2023-02-07T16:20:42.178Z,96118.60
2023-02-07T16:23:10.169Z,96114.80
2023-02-07T16:25:37.804Z,96118.80
2023-02-07T16:28:05.411Z,96121.60
2023-02-07T16:30:33.037Z,96121.40
2023-02-07T16:33:00.649Z,96122.40
2023-02-07T16:35:28.277Z,96124.60
2023-02-07T16:37:55.950Z,96131.40
2023-02-07T16:40:23.754Z,96125.00
2023-02-07T16:42:51.376Z,96127.20
2023-02-07T16:45:19.214Z,96136.80
2023-02-07T16:47:47.000Z,96140.40
2023-02-07T16:50:15.147Z,96137.00
2023-02-07T16:52:42.718Z,96138.80
2023-02-07T16:55:10.525Z,96150.20
2023-02-07T16:57:38.646Z,96154.60
2023-02-07T17:00:06.493Z,96155.60
2023-02-07T17:02:34.118Z,96155.20
2023-02-07T17:05:03.500Z,96157.40
2023-02-07T17:07:31.453Z,96160.80
2023-02-07T17:09:58.979Z,96152.40
2023-02-07T17:12:26.948Z,96149.20
2023-02-07T17:14:54.625Z,96152.40
2023-02-07T17:17:23.337Z,96152.80
2023-02-07T17:19:51.304Z,96152.00
2023-02-07T17:22:19.031Z,96153.20
2023-02-07T17:24:47.873Z,96158.60
2023-02-07T17:27:15.617Z,96156.20
2023-02-07T17:29:44.986Z,96158.40
2023-02-07T17:32:12.587Z,96161.60
2023-02-07T17:34:40.466Z,96165.00
2023-02-07T17:37:08.080Z,96165.00
2023-02-07T17:39:35.843Z,96163.40
2023-02-07T17:42:03.755Z,96163.60
2023-02-07T17:44:32.981Z,96162.60
2023-02-07T17:47:01.541Z,96165.20
2023-02-07T17:49:29.609Z,96168.40
2023-02-07T17:51:57.221Z,96169.40
2023-02-07T17:54:25.086Z,96169.00
2023-02-07T17:56:52.626Z,96161.60
2023-02-07T17:59:20.300Z,96163.40
2023-02-07T18:01:48.072Z,96167.20
2023-02-07T18:04:16.143Z,96172.40
2023-02-07T18:06:44.090Z,96172.20
2023-02-07T18:09:11.908Z,96174.60
2023-02-07T18:11:39.443Z,96175.00
2023-02-07T18:14:07.262Z,96176.60
2023-02-07T18:16:34.787Z,96180.20
2023-02-07T18:19:03.899Z,96181.20
2023-02-07T18:21:31.685Z,96181.20
2023-02-07T18:23:59.516Z,96179.80
2023-02-07T18:26:27.122Z,96178.00
2023-02-07T18:28:54.968Z,96179.80
2023-02-07T18:31:22.745Z,96180.80
2023-02-07T18:33:50.336Z,96184.00
2023-02-07T18:36:18.198Z,96185.60
2023-02-07T18:38:45.844Z,96184.80
2023-02-07T18:41:13.432Z,96187.00
2023-02-07T18:43:41.193Z,96190.80
2023-02-07T18:46:09.125Z,96188.80
2023-02-07T18:48:37.016Z,96186.60
2023-02-07T18:51:04.623Z,96190.80
2023-02-07T18:53:32.793Z,96190.20
2023-02-07T18:56:00.591Z,96193.60
2023-02-07T18:58:28.207Z,96196.00
2023-02-07T19:00:55.988Z,96197.60
2023-02-07T19:03:23.807Z,96200.20
2023-02-07T19:05:51.409Z,96199.40
2023-02-07T19:08:18.932Z,96201.80
2023-02-07T19:10:46.444Z,96202.60
2023-02-07T19:13:14.890Z,96207.40
2023-02-07T19:15:42.722Z,96212.00
2023-02-07T19:18:10.574Z,96217.20
2023-02-07T19:20:38.698Z,96215.40
2023-02-07T19:23:07.614Z,96215.40
2023-02-07T19:25:35.434Z,96215.60
2023-02-07T19:28:03.348Z,96206.80
2023-02-07T19:30:31.283Z,96203.00
2023-02-07T19:32:59.951Z,96206.00
2023-02-07T19:35:28.310Z,96207.20
2023-02-07T19:37:56.181Z,96214.00
2023-02-07T19:40:24.096Z,96222.00
2023-02-07T19:42:52.012Z,96229.20
2023-02-07T19:45:19.798Z,96230.00
2023-02-07T19:47:47.493Z,96234.00
2023-02-07T19:50:15.573Z,96235.80
2023-02-07T19:52:44.635Z,96235.20
2023-02-07T19:55:12.500Z,96233.40
2023-02-07T19:57:42.013Z,96230.80
2023-02-07T20:00:09.848Z,96231.80
2023-02-07T20:02:37.610Z,96230.40
2023-02-07T20:05:05.739Z,96232.20
2023-02-07T20:07:33.333Z,96225.00
2023-02-07T20:10:01.236Z,96229.40
2023-02-07T20:12:28.934Z,96235.60
2023-02-07T20:14:56.433Z,96239.60
2023-02-07T20:17:23.944Z,96240.60
2023-02-07T20:19:52.095Z,96244.60
2023-02-07T20:22:19.590Z,96248.60
2023-02-07T20:24:47.090Z,96249.00
2023-02-07T20:27:15.083Z,96248.20
2023-02-07T20:29:42.827Z,96248.60
2023-02-07T20:32:14.300Z,96253.40
2023-02-07T20:34:41.960Z,96250.80
2023-02-07T20:37:09.855Z,96257.20
2023-02-07T20:39:37.699Z,96259.80
2023-02-07T20:42:05.846Z,96251.20
2023-02-07T20:44:33.642Z,96252.00
2023-02-07T20:47:01.521Z,96254.20
2023-02-07T20:49:29.324Z,96252.00
2023-02-07T20:51:56.877Z,96250.80
2023-02-07T20:54:24.439Z,96252.00
2023-02-07T20:56:52.039Z,96254.40
2023-02-07T20:59:19.612Z,96256.80
2023-02-07T21:01:47.466Z,96262.80
2023-02-07T21:04:15.140Z,96256.60
2023-02-07T21:06:42.794Z,96265.40
2023-02-07T21:09:10.708Z,96270.40
2023-02-07T21:11:39.275Z,96277.60
2023-02-07T21:14:06.851Z,96273.20
2023-02-07T21:16:34.594Z,96276.00
2023-02-07T21:19:02.323Z,96272.40
2023-02-07T21:21:29.919Z,96273.80
2023-02-07T21:23:57.536Z,96282.00
2023-02-07T21:26:27.041Z,96280.20
2023-02-07T21:28:55.117Z,96275.40
2023-02-07T21:31:22.634Z,96281.40
2023-02-07T21:33:51.309Z,96283.00
2023-02-07T21:36:18.919Z,96286.00
2023-02-07T21:38:46.711Z,96285.00
2023-02-07T21:41:14.303Z,96284.60
2023-02-07T21:43:42.174Z,96285.20
2023-02-07T21:46:09.773Z,96288.60
2023-02-07T21:48:37.900Z,96289.60
2023-02-07T21:51:05.436Z,96292.80
2023-02-07T21:53:33.051Z,96292.80
2023-02-07T21:56:00.904Z,96292.20
2023-02-07T21:58:28.504Z,96295.40
2023-02-07T22:00:56.106Z,96296.40
2023-02-07T22:03:23.842Z,96297.20
2023-02-07T22:05:52.213Z,96294.00
2023-02-07T22:08:19.771Z,96294.80
2023-02-07T22:10:47.307Z,96294.00
2023-02-07T22:13:14.838Z,96291.80
2023-02-07T22:15:42.340Z,96290.40
2023-02-07T22:18:09.902Z,96285.20
2023-02-07T22:20:37.489Z,96287.00
2023-02-07T22:23:05.090Z,96286.80
2023-02-07T22:25:32.821Z,96284.00
2023-02-07T22:28:00.354Z,96281.00
2023-02-07T22:30:27.949Z,96282.40
2023-02-07T22:32:55.524Z,96286.60
2023-02-07T22:35:23.245Z,96284.60
2023-02-07T22:37:50.760Z,96279.20
2023-02-07T22:40:18.501Z,96276.40
2023-02-07T22:42:46.033Z,96282.60
2023-02-07T22:45:13.550Z,96283.00
2023-02-07T22:47:41.147Z,96278.20
2023-02-07T22:50:08.948Z,96278.00
2023-02-07T22:52:36.462Z,96283.80
2023-02-07T22:55:04.300Z,96277.20
2023-02-07T22:57:31.869Z,96283.80
2023-02-07T23:00:00.890Z,96283.80
2023-02-07T23:02:28.718Z,96283.40
2023-02-07T23:04:56.515Z,96282.20
2023-02-07T23:07:26.661Z,96287.60
2023-02-07T23:09:54.567Z,96282.40
2023-02-07T23:12:22.154Z,96288.40
2023-02-07T23:14:49.745Z,96292.00
2023-02-07T23:17:17.408Z,96288.40
2023-02-07T23:19:44.947Z,96282.80
2023-02-07T23:22:12.493Z,96284.40
2023-02-07T23:24:40.133Z,96279.20
2023-02-07T23:27:07.662Z,96281.20
2023-02-07T23:29:35.212Z,96280.80
2023-02-07T23:32:02.960Z,96283.00
2023-02-07T23:34:30.578Z,96279.40
2023-02-07T23:36:58.208Z,96276.60
2023-02-07T23:39:25.881Z,96282.60
2023-02-07T23:41:53.434Z,96279.20
2023-02-07T23:44:21.227Z,96273.20
2023-02-07T23:46:48.817Z,96275.40
2023-02-07T23:49:16.400Z,96273.00
2023-02-07T23:51:45.593Z,96271.80
2023-02-07T23:54:13.258Z,96271.20
2023-02-07T23:56:41.182Z,96273.20
2023-02-07T23:59:08.746Z,96277.00
